Time;durP1;ratioP1;P1;durP2;ratioP2;P2;SDS_P1;SDS_P2;PMS_P1;PMS_P2;Temp;Humidity;BMP_temperature;BMP_pressure;BME280_temperature;BME280_humidity;BME280_pressure;Samples;Min_cycle;Max_cycle;Signal;HPM_P1;HPM_P2
2022/05/03 00:00:28;;;;;;;;;;;;;;;-143.90;100.00;55123.13;2095477;28;19936;-64
2022/05/03 00:01:48;;;;;;;;;;;;;;;-143.90;100.00;55139.03;2094033;28;19995;-64
2022/05/03 00:03:15;;;;;;;;;;;;;;;-143.90;100.00;55150.94;2088493;28;19932;-64
2022/05/03 00:04:48;;;;;;;;;;;;;;;-143.90;100.00;55146.97;2094432;28;19921;-64
2022/05/03 00:06:16;;;;;;;;;;;;;;;-143.90;100.00;55119.16;2096065;28;19920;-65
2022/05/03 00:07:37;;;;;;;;;;;;;;;-143.90;100.00;55129.09;2093816;28;20010;-64
2022/05/03 00:09:01;;;;;;;;;;;;;;;-143.90;100.00;55115.19;2096000;28;19920;-64
2022/05/03 00:10:29;;;;;;;;;;;;;;;-143.90;100.00;55095.34;2095788;28;19924;-64
2022/05/03 00:11:49;;;;;;;;;;;;;;;-143.90;100.00;55123.13;2086148;28;19927;-64
2022/05/03 00:13:12;;;;;;;;;;;;;;;-143.90;100.00;55119.16;2091166;28;19920;-64
2022/05/03 00:14:32;;;;;;;;;;;;;;;-143.90;100.00;55164.84;2094588;28;20372;-64
2022/05/03 00:15:55;;;;;;;;;;;;;;;-143.90;100.00;55125.13;2096676;28;20039;-64
2022/05/03 00:17:18;;;;;;;;;;;;;;;-143.90;100.00;55133.06;2093814;28;19921;-67
2022/05/03 00:18:39;;;;;;;;;;;;;;;-143.90;100.00;55154.91;2095479;28;19921;-67
2022/05/03 00:20:01;;;;;;;;;;;;;;;-143.90;100.00;55152.91;2093247;28;20592;-67
2022/05/03 00:21:22;;;;;;;;;;;;;;;-143.90;100.00;55123.13;2096100;28;19924;-67
2022/05/03 00:22:43;;;;;;;;;;;;;;;-143.90;100.00;55089.38;2092087;28;20323;-67
2022/05/03 00:24:05;;;;;;;;;;;;;;;-143.90;100.00;55141.00;2095368;28;19930;-67
2022/05/03 00:25:25;;;;;;;;;;;;;;;-143.90;100.00;55123.13;2096273;28;20027;-67
2022/05/03 00:26:46;;;;;;;;;;;;;;;-143.90;100.00;55103.28;2094813;28;19963;-67
2022/05/03 00:28:07;;;;;;;;;;;;;;;-143.90;100.00;55111.22;2087009;28;19925;-67
2022/05/03 00:29:29;;;;;;;;;;;;;;;-143.90;100.00;55107.25;2089935;28;19935;-66
2022/05/03 00:30:50;;;;;;;;;;;;;;;-143.90;100.00;55107.25;2094396;28;20051;-66
2022/05/03 00:32:10;;;;;;;;;;;;;;;-143.90;100.00;55099.31;2086847;28;20451;-67
2022/05/03 00:33:33;;;;;;;;;;;;;;;-143.90;100.00;55119.16;2091683;28;19960;-65
2022/05/03 00:34:53;;;;;;;;;;;;;;;-143.90;100.00;55131.06;2093831;28;19932;-67
2022/05/03 00:36:14;;;;;;;;;;;;;;;-143.90;100.00;55137.03;2094581;28;20340;-67
2022/05/03 00:37:35;;;;;;;;;;;;;;;-143.90;100.00;55125.13;2094045;28;19925;-67
2022/05/03 00:38:56;;;;;;;;;;;;;;;-143.90;100.00;55115.19;2094083;28;19928;-67
2022/05/03 00:40:17;;;;;;;;;;;;;;;-143.90;100.00;55135.03;2093534;28;19924;-66
2022/05/03 00:41:45;;;;;;;;;;;;;;;-143.90;100.00;55141.00;2094359;28;19925;-67
2022/05/03 00:43:14;;;;;;;;;;;;;;;-143.90;100.00;55107.25;2096604;28;19924;-67
2022/05/03 00:44:58;;;;;;;;;;;;;;;-143.90;100.00;55146.97;2092276;28;19926;-67
2022/05/03 00:46:23;;;;;;;;;;;;;;;-143.90;100.00;55115.19;2092338;28;20383;-66
2022/05/03 00:47:48;;;;;;;;;;;;;;;-143.90;100.00;55103.28;2081211;28;19924;-67
2022/05/03 00:49:18;;;;;;;;;;;;;;;-143.90;100.00;55111.22;2086528;28;20285;-67
2022/05/03 00:50:49;;;;;;;;;;;;;;;-143.90;100.00;55154.91;2091244;27;19921;-67
2022/05/03 00:52:12;;;;;;;;;;;;;;;-143.90;100.00;55091.38;2088717;28;20440;-67
2022/05/03 00:53:34;;;;;;;;;;;;;;;-143.90;100.00;55115.19;2087817;28;19921;-67
2022/05/03 00:55:13;;;;;;;;;;;;;;;-143.90;100.00;55166.81;2086480;28;20019;-67
2022/05/03 00:56:47;;;;;;;;;;;;;;;-143.90;100.00;55099.31;2087446;28;20651;-67
2022/05/03 00:58:19;;;;;;;;;;;;;;;-143.90;100.00;55144.97;2087291;28;20392;-67
2022/05/03 00:59:57;;;;;;;;;;;;;;;-143.90;100.00;55131.06;2081239;28;20471;-67
2022/05/03 01:01:21;;;;;;;;;;;;;;;-143.90;100.00;55131.06;2088515;28;19925;-67
2022/05/03 01:03:06;;;;;;;;;;;;;;;-143.90;100.00;55135.03;2088046;28;20011;-67
2022/05/03 01:04:32;;;;;;;;;;;;;;;-143.90;100.00;55143.00;2091062;28;19930;-67
2022/05/03 01:06:15;;;;;;;;;;;;;;;-143.90;100.00;55123.13;2085464;28;19920;-67
2022/05/03 01:07:55;;;;;;;;;;;;;;;-143.90;100.00;55127.09;2089390;28;19920;-67
2022/05/03 01:09:17;;;;;;;;;;;;;;;-143.90;100.00;55131.06;2089448;28;20758;-67
2022/05/03 01:10:40;;;;;;;;;;;;;;;-143.90;100.00;55148.94;2089521;28;20423;-66
2022/05/03 01:12:24;;;;;;;;;;;;;;;-143.90;100.00;55115.19;2088913;28;20277;-66
2022/05/03 01:13:46;;;;;;;;;;;;;;;-143.90;100.00;55135.03;2062700;28;19922;-67
2022/05/03 01:15:11;;;;;;;;;;;;;;;-143.90;100.00;55162.84;2086428;28;19959;-65
2022/05/03 01:16:32;;;;;;;;;;;;;;;-143.90;100.00;55131.06;2087621;28;20043;-67
2022/05/03 01:18:01;;;;;;;;;;;;;;;-143.90;100.00;55119.16;2086391;28;20185;-67
2022/05/03 01:19:33;;;;;;;;;;;;;;;-143.90;100.00;55170.78;2087682;28;19947;-67
2022/05/03 01:21:12;;;;;;;;;;;;;;;-143.90;100.00;55166.81;2087783;28;19967;-67
2022/05/03 01:22:48;;;;;;;;;;;;;;;-143.90;100.00;55131.06;2089466;28;19927;-67
2022/05/03 01:24:09;;;;;;;;;;;;;;;-143.90;100.00;55121.16;2088283;28;20040;-67
2022/05/03 01:25:42;;;;;;;;;;;;;;;-143.90;100.00;55121.16;2089036;28;19920;-64
2022/05/03 01:27:15;;;;;;;;;;;;;;;-143.90;100.00;55150.94;2088612;28;19920;-64
2022/05/03 01:28:45;;;;;;;;;;;;;;;-143.90;100.00;55111.22;2091385;28;19920;-64
2022/05/03 01:30:05;;;;;;;;;;;;;;;-143.90;100.00;55119.16;2089753;28;19924;-64
2022/05/03 01:31:26;;;;;;;;;;;;;;;-143.90;100.00;55123.13;2087560;28;20385;-64
2022/05/03 01:32:46;;;;;;;;;;;;;;;-143.90;100.00;55135.03;2080446;28;20011;-64
2022/05/03 01:34:10;;;;;;;;;;;;;;;-143.90;100.00;55111.22;2084021;28;19920;-64
2022/05/03 01:35:30;;;;;;;;;;;;;;;-143.90;100.00;55150.94;2089029;28;20016;-63
2022/05/03 01:37:00;;;;;;;;;;;;;;;-143.90;100.00;55123.13;2089578;28;19921;-64
2022/05/03 01:38:30;;;;;;;;;;;;;;;-143.90;100.00;55196.59;2088482;28;19974;-64
2022/05/03 01:40:05;;;;;;;;;;;;;;;-143.90;100.00;55113.22;2089151;28;19920;-65
2022/05/03 01:41:45;;;;;;;;;;;;;;;-143.90;100.00;55113.22;2089316;28;19931;-64
2022/05/03 01:43:05;;;;;;;;;;;;;;;-143.90;100.00;55131.06;2090108;28;19920;-66
2022/05/03 01:44:39;;;;;;;;;;;;;;;-143.90;100.00;55103.28;2089919;28;19932;-64
2022/05/03 01:46:20;;;;;;;;;;;;;;;-143.90;100.00;55146.97;2090159;28;19928;-64
2022/05/03 01:47:41;;;;;;;;;;;;;;;-143.90;100.00;55127.09;2082002;28;19921;-64
2022/05/03 01:50:58;;;;;;;;;;;;;;;-143.90;100.00;55146.97;2089758;28;19928;-64
2022/05/03 01:52:37;;;;;;;;;;;;;;;-143.90;100.00;55133.06;2089330;28;19927;-64
2022/05/03 01:54:17;;;;;;;;;;;;;;;-143.90;100.00;55123.13;2087257;28;19931;-64
2022/05/03 01:55:41;;;;;;;;;;;;;;;-143.90;100.00;55166.81;2087602;28;19936;-65
2022/05/03 01:57:07;;;;;;;;;;;;;;;-143.90;100.00;55133.06;2088413;28;19925;-65
2022/05/03 01:58:27;;;;;;;;;;;;;;;-143.90;100.00;55146.97;2084331;28;19948;-64
2022/05/03 01:59:57;;;;;;;;;;;;;;;-143.90;100.00;55139.03;2079249;28;20028;-65
2022/05/03 02:01:27;;;;;;;;;;;;;;;-143.90;100.00;55113.22;2081841;28;20034;-65
2022/05/03 02:02:57;;;;;;;;;;;;;;;-143.90;100.00;55123.13;2086781;28;19925;-65
2022/05/03 02:04:30;;;;;;;;;;;;;;;-143.90;100.00;55143.00;2088607;28;19924;-64
2022/05/03 02:06:06;;;;;;;;;;;;;;;-143.90;100.00;55115.19;2080274;28;19921;-64
2022/05/03 02:07:26;;;;;;;;;;;;;;;-143.90;100.00;55133.06;2088952;28;20015;-64
2022/05/03 02:08:47;;;;;;;;;;;;;;;-143.90;100.00;55125.13;2088153;28;19920;-64
2022/05/03 02:10:13;;;;;;;;;;;;;;;-143.90;100.00;55168.81;2087415;28;19932;-64
2022/05/03 02:11:39;;;;;;;;;;;;;;;-143.90;100.00;55141.00;2088930;28;20372;-65
2022/05/03 02:13:02;;;;;;;;;;;;;;;-143.90;100.00;55131.06;2087815;28;19921;-64
2022/05/03 02:14:44;;;;;;;;;;;;;;;-143.90;100.00;55125.13;2087905;28;19920;-64
2022/05/03 02:16:08;;;;;;;;;;;;;;;-143.90;100.00;55099.31;2080013;28;19942;-64
2022/05/03 02:17:31;;;;;;;;;;;;;;;-143.90;100.00;55125.13;2088002;28;20685;-64
2022/05/03 02:18:56;;;;;;;;;;;;;;;-143.90;100.00;55139.03;2088637;28;20035;-64
2022/05/03 02:20:35;;;;;;;;;;;;;;;-143.90;100.00;55131.06;2088092;28;19956;-64
2022/05/03 02:22:15;;;;;;;;;;;;;;;-143.90;100.00;55131.06;2089357;28;20734;-64
2022/05/03 02:23:57;;;;;;;;;;;;;;;-143.90;100.00;55075.47;2089487;28;19924;-65
2022/05/03 02:25:35;;;;;;;;;;;;;;;-143.90;100.00;55109.22;2085646;28;20004;-64
2022/05/03 02:27:01;;;;;;;;;;;;;;;-143.90;100.00;55139.03;2080963;28;20012;-64
2022/05/03 02:28:28;;;;;;;;;;;;;;;-143.90;100.00;55143.00;2086626;28;19942;-65
2022/05/03 02:29:49;;;;;;;;;;;;;;;-143.90;100.00;55091.38;2088445;28;19999;-64
2022/05/03 02:31:12;;;;;;;;;;;;;;;-143.90;100.00;55135.03;2088865;28;19973;-64
2022/05/03 02:32:37;;;;;;;;;;;;;;;-143.90;100.00;55107.25;2087430;28;19920;-64
2022/05/03 02:34:04;;;;;;;;;;;;;;;-143.90;100.00;55103.28;2079656;28;19925;-64
2022/05/03 02:35:27;;;;;;;;;;;;;;;-143.90;100.00;55143.00;2077807;28;19928;-65
2022/05/03 02:36:53;;;;;;;;;;;;;;;-143.90;100.00;55127.09;2078323;28;19924;-64
2022/05/03 02:38:17;;;;;;;;;;;;;;;-143.90;100.00;55139.03;2087449;28;19920;-64
2022/05/03 02:39:38;;;;;;;;;;;;;;;-143.90;100.00;55103.28;2085915;28;19940;-64
2022/05/03 02:40:59;;;;;;;;;;;;;;;-143.90;100.00;55107.25;2077069;28;19920;-65
2022/05/03 02:42:20;;;;;;;;;;;;;;;-143.90;100.00;55115.19;2085230;28;19920;-64
2022/05/03 02:43:41;;;;;;;;;;;;;;;-143.90;100.00;55103.28;2087890;28;20364;-64
2022/05/03 02:45:02;;;;;;;;;;;;;;;-143.90;100.00;55107.25;2087721;28;19939;-64
2022/05/03 02:46:29;;;;;;;;;;;;;;;-143.90;100.00;55091.38;2087315;28;19921;-64
2022/05/03 02:48:09;;;;;;;;;;;;;;;-143.90;100.00;55103.28;2089753;28;19927;-64
2022/05/03 02:49:39;;;;;;;;;;;;;;;-143.90;100.00;55162.84;2086606;28;19920;-64
2022/05/03 02:51:04;;;;;;;;;;;;;;;-143.90;100.00;55131.06;2088590;28;19920;-64
2022/05/03 02:52:29;;;;;;;;;;;;;;;-143.90;100.00;55097.31;2090393;28;20383;-64
2022/05/03 02:53:55;;;;;;;;;;;;;;;-143.90;100.00;55154.91;2088277;28;19920;-65
2022/05/03 02:55:27;;;;;;;;;;;;;;;-143.90;100.00;55111.22;2087933;28;19960;-64
2022/05/03 02:56:59;;;;;;;;;;;;;;;-143.90;100.00;55139.03;2080172;28;19971;-64
2022/05/03 02:58:23;;;;;;;;;;;;;;;-143.90;100.00;55111.22;2087460;28;19920;-64
2022/05/03 03:01:47;;;;;;;;;;;;;;;-143.90;100.00;55107.25;2089849;28;19931;-64
2022/05/03 03:03:27;;;;;;;;;;;;;;;-143.90;100.00;55091.38;2089939;28;20131;-65
2022/05/03 03:04:54;;;;;;;;;;;;;;;-143.90;100.00;55133.06;2090474;28;19931;-64
2022/05/03 03:06:22;;;;;;;;;;;;;;;-143.90;100.00;55103.28;2087648;28;19970;-64
2022/05/03 03:07:51;;;;;;;;;;;;;;;-143.90;100.00;55131.06;2089607;28;19973;-64
2022/05/03 03:09:15;;;;;;;;;;;;;;;-143.90;100.00;55152.91;2088156;28;19956;-65
2022/05/03 03:10:45;;;;;;;;;;;;;;;-143.90;100.00;55107.25;2088704;28;19921;-64
2022/05/03 03:12:20;;;;;;;;;;;;;;;-143.90;100.00;55097.31;2086390;28;19928;-65
2022/05/03 03:14:00;;;;;;;;;;;;;;;-143.90;100.00;55093.34;2087453;28;20051;-64
2022/05/03 03:15:26;;;;;;;;;;;;;;;-143.90;100.00;55109.22;2087851;28;20012;-64
2022/05/03 03:16:54;;;;;;;;;;;;;;;-143.90;100.00;55113.22;2088817;28;19925;-64
2022/05/03 03:18:16;;;;;;;;;;;;;;;-143.90;100.00;55143.00;2086453;28;20015;-65
2022/05/03 03:19:45;;;;;;;;;;;;;;;-143.90;100.00;55121.16;2087896;28;20391;-64
2022/05/03 03:21:06;;;;;;;;;;;;;;;-143.90;100.00;55111.22;2088758;28;20719;-65
2022/05/03 03:22:28;;;;;;;;;;;;;;;-143.90;100.00;55115.19;2081884;28;19964;-64
2022/05/03 03:23:49;;;;;;;;;;;;;;;-143.90;100.00;55121.16;2085353;28;20626;-64
2022/05/03 03:25:11;;;;;;;;;;;;;;;-143.90;100.00;55115.19;2087335;28;19921;-64
2022/05/03 03:26:31;;;;;;;;;;;;;;;-143.90;100.00;55107.25;2087269;28;20441;-64
2022/05/03 03:27:53;;;;;;;;;;;;;;;-143.90;100.00;55154.91;2079913;28;20475;-64
2022/05/03 03:29:14;;;;;;;;;;;;;;;-143.90;100.00;55139.03;2085421;28;19927;-64
2022/05/03 03:30:34;;;;;;;;;;;;;;;-143.90;100.00;55129.09;2087619;28;19920;-64
2022/05/03 03:31:55;;;;;;;;;;;;;;;-143.90;100.00;55103.28;2079264;28;19931;-65
2022/05/03 03:33:17;;;;;;;;;;;;;;;-143.90;100.00;55109.22;2084886;28;20037;-64
2022/05/03 03:34:37;;;;;;;;;;;;;;;-143.90;100.00;55083.41;2087403;28;19921;-64
2022/05/03 03:35:58;;;;;;;;;;;;;;;-143.90;100.00;55095.34;2087042;28;19983;-65
2022/05/03 03:37:19;;;;;;;;;;;;;;;-143.90;100.00;55143.00;2080297;28;19925;-64
2022/05/03 03:38:40;;;;;;;;;;;;;;;-143.90;100.00;55095.34;2077831;28;20393;-65
2022/05/03 03:40:01;;;;;;;;;;;;;;;-143.90;100.00;55101.28;2085675;28;19927;-64
2022/05/03 03:41:23;;;;;;;;;;;;;;;-143.90;100.00;55123.13;2087566;28;19924;-64
2022/05/03 03:42:44;;;;;;;;;;;;;;;-143.90;100.00;55135.03;2088071;28;19928;-64
2022/05/03 03:44:05;;;;;;;;;;;;;;;-143.90;100.00;55127.09;2087137;28;20408;-64
2022/05/03 03:45:26;;;;;;;;;;;;;;;-143.90;100.00;55133.06;2086368;28;19967;-64
2022/05/03 03:46:47;;;;;;;;;;;;;;;-143.90;100.00;55103.28;2086240;28;19979;-64
2022/05/03 03:48:08;;;;;;;;;;;;;;;-143.90;100.00;55111.22;2085903;28;19932;-64
2022/05/03 03:49:29;;;;;;;;;;;;;;;-143.90;100.00;55135.03;2086667;28;19920;-64
2022/05/03 03:50:59;;;;;;;;;;;;;;;-143.90;100.00;55133.06;2087937;28;19928;-64
2022/05/03 03:52:20;;;;;;;;;;;;;;;-143.90;100.00;55127.09;2087973;28;20422;-65
2022/05/03 03:53:40;;;;;;;;;;;;;;;-143.90;100.00;55119.16;2078727;28;20530;-64
2022/05/03 03:55:02;;;;;;;;;;;;;;;-143.90;100.00;55109.22;2083636;28;19921;-64
2022/05/03 03:56:23;;;;;;;;;;;;;;;-143.90;100.00;55129.09;2086832;28;19920;-64
2022/05/03 03:57:44;;;;;;;;;;;;;;;-143.90;100.00;55121.16;2087391;28;19943;-64
2022/05/03 03:59:04;;;;;;;;;;;;;;;-143.90;100.00;55121.16;2086443;28;19920;-64
2022/05/03 04:00:25;;;;;;;;;;;;;;;-143.90;100.00;55095.34;2087286;28;19931;-63
2022/05/03 04:01:48;;;;;;;;;;;;;;;-143.90;100.00;55123.13;2088908;28;20467;-64
2022/05/03 04:03:09;;;;;;;;;;;;;;;-143.90;100.00;55107.25;2086653;28;19932;-64
2022/05/03 04:04:32;;;;;;;;;;;;;;;-143.90;100.00;55113.22;2087276;28;19993;-65
2022/05/03 04:05:53;;;;;;;;;;;;;;;-143.90;100.00;55119.16;2087525;28;19988;-64
2022/05/03 04:07:14;;;;;;;;;;;;;;;-143.90;100.00;55119.16;2072529;28;20388;-64
2022/05/03 04:08:34;;;;;;;;;;;;;;;-143.90;100.00;55150.94;2081326;28;20379;-65
2022/05/03 04:09:55;;;;;;;;;;;;;;;-143.90;100.00;55091.38;2077033;28;20365;-64
2022/05/03 04:11:16;;;;;;;;;;;;;;;-143.90;100.00;55129.09;2085390;28;19925;-64
2022/05/03 04:12:37;;;;;;;;;;;;;;;-143.90;100.00;55087.41;2087505;28;20057;-64
2022/05/03 04:13:58;;;;;;;;;;;;;;;-143.90;100.00;55097.31;2086757;28;19924;-64
2022/05/03 04:15:18;;;;;;;;;;;;;;;-143.90;100.00;55143.00;2085175;28;19925;-64
2022/05/03 04:16:39;;;;;;;;;;;;;;;-143.90;100.00;55099.31;2087928;28;19992;-64
2022/05/03 04:18:06;;;;;;;;;;;;;;;-143.90;100.00;55111.22;2078746;28;20076;-64
2022/05/03 04:19:28;;;;;;;;;;;;;;;-143.90;100.00;55107.25;2086044;28;20027;-64
2022/05/03 04:20:49;;;;;;;;;;;;;;;-143.90;100.00;55117.19;2087590;28;20475;-64
2022/05/03 04:22:29;;;;;;;;;;;;;;;-143.90;100.00;55119.16;2087680;28;19940;-64
2022/05/03 04:23:50;;;;;;;;;;;;;;;-143.90;100.00;55117.19;2089669;28;19924;-64
2022/05/03 04:25:11;;;;;;;;;;;;;;;-143.90;100.00;55127.09;2087516;28;20039;-64
2022/05/03 04:26:31;;;;;;;;;;;;;;;-143.90;100.00;55119.16;2090090;28;19920;-64
2022/05/03 04:27:52;;;;;;;;;;;;;;;-143.90;100.00;55099.31;2080842;28;19921;-65
2022/05/03 04:29:14;;;;;;;;;;;;;;;-143.90;100.00;55115.19;2087806;28;19920;-64
2022/05/03 04:30:34;;;;;;;;;;;;;;;-143.90;100.00;55085.41;2087553;28;19928;-64
2022/05/03 04:31:55;;;;;;;;;;;;;;;-143.90;100.00;55139.03;2086941;28;19928;-64
2022/05/03 04:33:16;;;;;;;;;;;;;;;-143.90;100.00;55123.13;2088528;28;19921;-64
2022/05/03 04:34:37;;;;;;;;;;;;;;;-143.90;100.00;55081.44;2088285;28;19921;-64
2022/05/03 04:35:57;;;;;;;;;;;;;;;-143.90;100.00;55111.22;2088467;28;19956;-64
2022/05/03 04:37:18;;;;;;;;;;;;;;;-143.90;100.00;55095.34;2090727;28;19925;-64
2022/05/03 04:38:39;;;;;;;;;;;;;;;-143.90;100.00;55075.47;2087662;28;20355;-64
2022/05/03 04:39:59;;;;;;;;;;;;;;;-143.90;100.00;55127.09;2088655;28;19963;-64
2022/05/03 04:41:23;;;;;;;;;;;;;;;-143.90;100.00;55123.13;2079672;28;19924;-64
2022/05/03 04:42:44;;;;;;;;;;;;;;;-143.90;100.00;55107.25;2087329;28;20758;-64
2022/05/03 04:44:05;;;;;;;;;;;;;;;-143.90;100.00;55095.34;2088775;28;20320;-64
2022/05/03 04:45:25;;;;;;;;;;;;;;;-143.90;100.00;55131.06;2088346;28;19924;-64
2022/05/03 04:46:46;;;;;;;;;;;;;;;-143.90;100.00;55081.44;2088926;28;20400;-64
2022/05/03 04:48:07;;;;;;;;;;;;;;;-143.90;100.00;55107.25;2086242;28;20379;-64
2022/05/03 04:49:28;;;;;;;;;;;;;;;-143.90;100.00;55091.38;2089327;28;19930;-64
2022/05/03 04:50:48;;;;;;;;;;;;;;;-143.90;100.00;55103.28;2089350;28;20421;-64
2022/05/03 04:52:09;;;;;;;;;;;;;;;-143.90;100.00;55127.09;2088422;28;20273;-64
2022/05/03 04:53:29;;;;;;;;;;;;;;;-143.90;100.00;55103.28;2089198;28;19974;-65
2022/05/03 04:54:50;;;;;;;;;;;;;;;-143.90;100.00;55101.28;2086423;28;19921;-65
2022/05/03 04:56:21;;;;;;;;;;;;;;;-143.90;100.00;55085.41;2087858;28;19932;-64
2022/05/03 04:57:41;;;;;;;;;;;;;;;-143.90;100.00;55131.06;2089501;28;19971;-64
2022/05/03 04:59:02;;;;;;;;;;;;;;;-143.90;100.00;55127.09;2089312;28;19994;-65
2022/05/03 05:00:23;;;;;;;;;;;;;;;-143.90;100.00;55099.31;2087841;28;20023;-65
2022/05/03 05:01:44;;;;;;;;;;;;;;;-143.90;100.00;55091.38;2081258;28;19921;-65
2022/05/03 05:03:05;;;;;;;;;;;;;;;-143.90;100.00;55071.50;2085622;28;19921;-64
2022/05/03 05:04:25;;;;;;;;;;;;;;;-143.90;100.00;55067.53;2086824;28;20422;-65
2022/05/03 05:05:46;;;;;;;;;;;;;;;-143.90;100.00;55075.47;2089297;28;19963;-64
2022/05/03 05:07:06;;;;;;;;;;;;;;;-143.90;100.00;55071.50;2088785;28;19927;-65
2022/05/03 05:08:27;;;;;;;;;;;;;;;-143.90;100.00;55091.38;2088348;28;19920;-64
2022/05/03 05:11:27;;;;;;;;;;;;;;;-143.90;100.00;55055.63;2089975;28;19956;-65
2022/05/03 05:12:47;;;;;;;;;;;;;;;-143.90;100.00;55121.16;2088535;28;20370;-65
2022/05/03 05:14:08;;;;;;;;;;;;;;;-143.90;100.00;55095.34;2087738;28;19931;-65
2022/05/03 05:15:29;;;;;;;;;;;;;;;-143.90;100.00;55087.41;2087960;28;19925;-64
2022/05/03 05:16:49;;;;;;;;;;;;;;;-143.90;100.00;55101.28;2087246;28;20036;-64
2022/05/03 05:18:10;;;;;;;;;;;;;;;-143.90;100.00;55067.53;2079542;28;19979;-63
2022/05/03 05:19:31;;;;;;;;;;;;;;;-143.90;100.00;55079.44;2085315;28;20353;-63
2022/05/03 05:20:51;;;;;;;;;;;;;;;-143.90;100.00;55091.38;2089220;28;19920;-63
2022/05/03 05:22:12;;;;;;;;;;;;;;;-143.90;100.00;55079.44;2087870;28;19921;-62
2022/05/03 05:23:32;;;;;;;;;;;;;;;-143.90;100.00;55075.47;2085221;28;19920;-63
2022/05/03 05:24:53;;;;;;;;;;;;;;;-143.90;100.00;55059.59;2088040;28;19923;-63
2022/05/03 05:26:14;;;;;;;;;;;;;;;-143.90;100.00;55069.53;2088037;28;19920;-63
2022/05/03 05:27:34;;;;;;;;;;;;;;;-143.90;100.00;55053.63;2086379;28;19931;-63
2022/05/03 05:28:57;;;;;;;;;;;;;;;-143.90;100.00;55055.63;2088200;28;19925;-63
2022/05/03 05:30:17;;;;;;;;;;;;;;;-143.90;100.00;55107.25;2088512;28;19920;-63
2022/05/03 05:31:38;;;;;;;;;;;;;;;-143.90;100.00;55091.38;2087685;28;19924;-63
2022/05/03 05:32:59;;;;;;;;;;;;;;;-143.90;100.00;55071.50;2087816;28;19920;-63
2022/05/03 05:34:19;;;;;;;;;;;;;;;-143.90;100.00;55057.59;2088666;28;19943;-63
2022/05/03 05:35:40;;;;;;;;;;;;;;;-143.90;100.00;55055.63;2089243;28;19931;-64
2022/05/03 05:37:01;;;;;;;;;;;;;;;-143.90;96.86;55095.34;2087917;28;19920;-65
2022/05/03 05:38:22;;;;;;;;;;;;;;;-143.90;96.71;55075.47;2089816;28;20510;-65
2022/05/03 05:39:44;;;;;;;;;;;;;;;-143.90;96.84;55083.41;2088432;28;19921;-65
2022/05/03 05:41:12;;;;;;;;;;;;;;;-143.90;96.63;55059.59;2089124;28;19931;-65
2022/05/03 05:42:33;;;;;;;;;;;;;;;-143.90;93.31;55067.53;2088930;28;20063;-65
2022/05/03 05:43:53;;;;;;;;;;;;;;;-143.90;90.63;55071.50;2088159;28;19917;-66
2022/05/03 05:45:14;;;;;;;;;;;;;;;-143.90;87.88;55083.41;2088358;28;19928;-65
2022/05/03 05:46:35;;;;;;;;;;;;;;;-143.90;88.25;55049.66;2087520;28;19916;-64
2022/05/03 05:47:56;;;;;;;;;;;;;;;-143.90;89.13;55031.78;2088354;28;19928;-65
2022/05/03 05:49:17;;;;;;;;;;;;;;;-143.90;85.45;55039.75;2088770;28;19916;-65
2022/05/03 05:50:38;;;;;;;;;;;;;;;-143.90;82.88;55063.56;2086808;28;20011;-65
2022/05/03 05:53:31;;;;;;;;;;;;;;;-143.90;81.39;55031.78;2088757;28;19925;-65
2022/05/03 05:53:39;;;;;;;;;;;;;;;-143.90;82.14;55023.84;2088270;28;20421;-65
2022/05/03 05:55:00;;;;;;;;;;;;;;;-143.90;77.59;55007.97;2088028;28;20023;-65
2022/05/03 05:56:20;;;;;;;;;;;;;;;-143.90;81.00;55035.78;2090043;28;20380;-66
2022/05/03 05:57:41;;;;;;;;;;;;;;;-143.90;79.65;55049.66;2089315;28;19921;-65
2022/05/03 05:59:02;;;;;;;;;;;;;;;-143.90;78.09;55039.75;2086738;28;20019;-65
2022/05/03 06:00:22;;;;;;;;;;;;;;;-143.90;77.18;54996.06;2088257;28;19955;-65
2022/05/03 06:01:43;;;;;;;;;;;;;;;-143.90;74.99;55071.50;2087967;28;19921;-65
2022/05/03 06:03:05;;;;;;;;;;;;;;;-143.90;73.43;54980.19;2085841;28;20494;-65
2022/05/03 06:04:29;;;;;;;;;;;;;;;-143.90;74.03;54992.09;2086740;28;19964;-65
2022/05/03 06:05:49;;;;;;;;;;;;;;;-143.90;72.55;54996.06;2085862;28;19925;-65
2022/05/03 06:07:10;;;;;;;;;;;;;;;-143.90;70.83;55031.78;2088644;28;20388;-65
2022/05/03 06:08:31;;;;;;;;;;;;;;;-143.90;71.05;55047.69;2087843;28;20019;-65
2022/05/03 06:09:52;;;;;;;;;;;;;;;-143.90;71.94;55039.75;2088298;28;19921;-65
2022/05/03 06:11:12;;;;;;;;;;;;;;;-143.90;70.73;55029.81;2087315;28;19959;-65
2022/05/03 06:12:33;;;;;;;;;;;;;;;-143.90;70.35;55009.97;2086404;28;19920;-65
2022/05/03 06:13:54;;;;;;;;;;;;;;;-143.90;70.70;55029.81;2086781;28;19920;-65
2022/05/03 06:15:15;;;;;;;;;;;;;;;-143.90;70.00;55007.97;2086452;28;19920;-65
2022/05/03 06:16:56;;;;;;;;;;;;;;;-143.90;69.82;54976.19;2086333;28;20914;-65
2022/05/03 06:18:17;;;;;;;;;;;;;;;-143.90;71.24;55055.63;2085840;28;19921;-65
2022/05/03 06:19:38;;;;;;;;;;;;;;;-143.90;71.76;55035.78;2087700;28;19920;-65
2022/05/03 06:20:58;;;;;;;;;;;;;;;-143.90;73.03;55009.97;2087998;28;19955;-65
2022/05/03 06:22:20;;;;;;;;;;;;;;;-143.90;72.24;55055.63;2086402;28;20486;-66
2022/05/03 06:23:40;;;;;;;;;;;;;;;-143.90;66.87;55002.00;2085410;28;20708;-65
2022/05/03 06:25:01;;;;;;;;;;;;;;;-143.90;65.06;55011.94;2086026;28;19979;-63
2022/05/03 06:26:22;;;;;;;;;;;;;;;-143.90;62.71;55013.94;2088852;28;19948;-63
2022/05/03 06:27:42;;;;;;;;;;;;;;;-143.90;61.83;55015.91;2088413;28;19932;-63
2022/05/03 06:29:04;;;;;;;;;;;;;;;-143.90;60.63;55009.97;2089414;28;19920;-63
2022/05/03 06:30:25;;;;;;;;;;;;;;;-143.90;60.23;55009.97;2088212;28;19975;-63
2022/05/03 06:31:45;;;;;;;;;;;;;;;-143.90;60.93;55009.97;2087708;28;19927;-62
2022/05/03 06:33:06;;;;;;;;;;;;;;;-143.90;59.13;54988.13;2087993;28;20278;-62
2022/05/03 06:34:26;;;;;;;;;;;;;;;-143.90;59.89;54984.16;2088116;28;20075;-62
2022/05/03 06:35:47;;;;;;;;;;;;;;;-143.90;59.71;54942.44;2079634;28;20029;-63
2022/05/03 06:37:08;;;;;;;;;;;;;;;-143.90;58.84;55015.91;2077635;28;19967;-62
2022/05/03 06:38:28;;;;;;;;;;;;;;;-143.90;59.62;54982.16;2069648;28;19925;-62
2022/05/03 06:39:49;;;;;;;;;;;;;;;-143.90;57.96;55007.97;2074839;28;19928;-62
2022/05/03 06:41:12;;;;;;;;;;;;;;;-143.90;56.18;55011.94;2077287;28;19925;-63
2022/05/03 06:42:36;;;;;;;;;;;;;;;-143.90;57.35;55004.00;2078902;28;20325;-62
2022/05/03 06:43:58;;;;;;;;;;;;;;;-143.90;57.87;54984.16;2075384;28;19953;-62
2022/05/03 06:45:19;;;;;;;;;;;;;;;-143.90;57.37;55009.97;2077340;28;19924;-63
2022/05/03 06:46:40;;;;;;;;;;;;;;;-143.90;57.47;55079.44;2080535;28;19917;-62
2022/05/03 06:48:01;;;;;;;;;;;;;;;-143.90;54.93;55000.03;2080193;28;19948;-62
2022/05/03 06:49:22;;;;;;;;;;;;;;;-143.90;55.98;55027.81;2080509;28;19917;-62
2022/05/03 06:50:43;;;;;;;;;;;;;;;-143.90;52.95;55007.97;2080985;28;19978;-62
2022/05/03 06:52:03;;;;;;;;;;;;;;;-143.90;53.83;54948.41;2078272;28;19921;-62
2022/05/03 06:53:24;;;;;;;;;;;;;;;-143.90;52.91;54992.09;2069991;28;19921;-62
2022/05/03 06:54:45;;;;;;;;;;;;;;;-143.90;53.80;55007.97;2078883;28;19920;-62
2022/05/03 06:56:06;;;;;;;;;;;;;;;-143.90;54.29;55007.97;2077997;28;19921;-62
2022/05/03 06:57:26;;;;;;;;;;;;;;;-143.90;51.92;55006.00;2079692;28;19921;-62
2022/05/03 06:58:47;;;;;;;;;;;;;;;-143.90;52.43;55002.00;2080023;28;19917;-62
2022/05/03 07:00:08;;;;;;;;;;;;;;;-143.90;51.23;54990.09;2080365;28;19964;-62
2022/05/03 07:01:28;;;;;;;;;;;;;;;-143.90;52.13;55007.97;2080811;28;20304;-62
2022/05/03 07:02:50;;;;;;;;;;;;;;;-143.90;50.27;54954.38;2071509;28;19924;-64
2022/05/03 07:04:11;;;;;;;;;;;;;;;-143.90;49.21;54996.06;2076807;28;19917;-62
2022/05/03 07:05:31;;;;;;;;;;;;;;;-143.90;50.89;55047.69;2078957;28;19920;-64
2022/05/03 07:06:52;;;;;;;;;;;;;;;-143.90;51.09;54984.16;2080098;28;20011;-64
2022/05/03 07:08:13;;;;;;;;;;;;;;;-143.90;51.51;54990.09;2080130;28;19930;-64